Time;durP1;ratioP1;P1;durP2;ratioP2;P2;SDS_P1;SDS_P2;PMS_P1;PMS_P2;Temp;Humidity;BMP_temperature;BMP_pressure;BME280_temperature;BME280_humidity;BME280_pressure;Samples;Min_cycle;Max_cycle;Signal;HPM_P1;HPM_P2
2021/05/09 04:31:41;;;;;;;4.60;2.77;;;12.00;1.00;;;-143.32;100.00;54729.63;4925632;29;20558;-93
2021/05/09 04:53:44;;;;;;;4.10;2.90;;;12.70;99.90;;;-143.32;98.83;54636.69;4939214;29;20466;-93
2021/05/09 05:12:13;;;;;;;7.33;2.70;;;13.30;1.00;;;-143.32;96.60;54675.09;4855485;29;20490;-93
2021/05/09 05:19:20;;;;;;;;;;;;;;;;;;;;;
2021/05/09 05:40:29;;;;;;;;;;;;;;;;;;;;;
2021/05/09 05:47:31;;;;;;;3.87;2.10;;;13.90;91.20;;;-143.32;93.80;54598.31;5005766;28;20411;-93
2021/05/09 06:12:44;;;;;;;5.27;2.00;;;18.40;1.00;;;-143.32;76.91;54438.69;4827460;29;20456;-93
2021/05/09 11:27:56;;;;;;;6.70;1.93;;;26.30;99.90;;;-143.32;38.94;54513.44;5377843;22;20486;-91
2021/05/09 11:30:34;;;;;;;5.27;2.37;;;26.50;99.90;;;-143.32;39.80;54479.09;4995120;28;20457;-90
2021/05/09 11:33:02;;;;;;;4.10;2.43;;;26.40;99.90;;;-143.32;39.01;54535.66;4995259;28;20439;-92
2021/05/09 11:39:17;;;;;;;4.63;2.17;;;26.50;99.90;;;-143.32;39.03;54531.63;5011992;28;20476;-92
2021/05/09 11:42:12;;;;;;;3.43;2.23;;;26.70;99.90;;;-143.32;38.45;54521.53;5007494;28;20446;-92
2021/05/09 11:44:45;;;;;;;3.57;2.03;;;26.80;99.90;;;-143.32;37.37;54537.69;5005122;28;20445;-91
2021/05/09 11:47:13;;;;;;;2.80;2.23;;;26.90;99.90;;;-143.32;37.79;54505.38;5002648;28;20489;-93
2021/05/09 11:49:41;;;;;;;3.20;2.13;;;27.00;99.90;;;-143.32;37.78;54533.66;4996446;28;20454;-93
2021/05/09 11:52:14;;;;;;;2.60;1.73;;;27.00;99.90;;;-143.32;37.54;54485.16;4996554;28;20450;-90
2021/05/09 11:54:46;;;;;;;10.13;7.10;;;27.10;99.90;;;-143.32;37.30;54543.75;4995527;28;20478;-92
2021/05/09 11:57:14;;;;;;;11.83;2.00;;;27.10;99.90;;;-143.32;36.25;54590.22;4994558;28;20470;-91
2021/05/09 11:59:43;;;;;;;4.30;1.90;;;26.90;99.90;;;-143.32;37.54;54606.38;4994910;28;20450;-92
2021/05/09 12:05:51;;;;;;;16.50;3.60;;;26.80;99.90;;;-143.32;36.72;54557.91;4998007;28;20872;-91
2021/05/09 12:08:19;;;;;;;2.43;1.63;;;27.00;99.90;;;-143.32;35.96;54620.53;4995205;28;21020;-91
2021/05/09 12:10:46;;;;;;;2.70;1.97;;;26.90;99.90;;;-143.32;37.06;54610.44;4994998;28;20443;-90
2021/05/09 12:13:17;;;;;;;6.40;2.30;;;27.00;99.90;;;-143.32;36.15;54626.59;4997101;28;20454;-92
2021/05/09 12:15:47;;;;;;;6.50;1.93;;;27.00;99.90;;;-143.32;35.86;54622.56;4999344;28;20434;-88
2021/05/09 12:18:14;;;;;;;4.30;1.80;;;27.10;99.90;;;-143.32;36.61;54594.25;4994976;28;20525;-87
2021/05/09 12:20:45;;;;;;;4.03;1.90;;;27.10;99.90;;;-143.32;35.89;54630.63;4994268;28;20446;-86
2021/05/09 12:23:27;;;;;;;2.90;1.97;;;27.30;99.90;;;-143.32;35.31;54652.84;4994124;28;20860;-88
2021/05/09 12:25:59;;;;;;;5.10;1.80;;;27.30;99.90;;;-143.32;35.63;54652.84;4994427;28;20426;-89
2021/05/09 12:28:29;;;;;;;4.57;1.70;;;27.20;99.90;;;-143.32;35.00;54687.22;4993347;28;20482;-88
2021/05/09 12:31:09;;;;;;;3.87;1.80;;;27.10;99.90;;;-143.32;36.14;54650.84;4993872;28;20466;-87
2021/05/09 12:33:36;;;;;;;3.10;2.20;;;27.00;99.90;;;-143.32;36.23;54632.66;4993784;28;20917;-89
2021/05/09 12:36:12;;;;;;;7.20;2.00;;;27.00;99.90;;;-143.32;36.30;54669.03;4994784;28;20879;-88
2021/05/09 12:38:39;;;;;;;3.60;1.87;;;27.10;99.90;;;-143.32;36.13;54660.94;4994859;28;20584;-87
2021/05/09 12:41:10;;;;;;;4.47;2.20;;;27.10;99.90;;;-143.32;35.89;54652.84;4994110;28;20446;-88
2021/05/09 12:43:48;;;;;;;6.27;2.03;;;27.20;99.90;;;-143.32;36.30;54677.09;4994224;28;20438;-87
2021/05/09 12:46:35;;;;;;;5.47;1.77;;;27.30;99.90;;;-143.32;36.35;54660.94;4993980;28;20458;-88
2021/05/09 12:49:13;;;;;;;2.00;1.50;;;27.30;99.90;;;-143.32;36.23;54677.09;4993703;28;20520;-87
2021/05/09 12:51:58;;;;;;;5.83;1.80;;;27.30;99.90;;;-143.32;35.77;54693.28;4994666;28;20464;-87
2021/05/09 12:54:37;;;;;;;3.33;1.53;;;27.50;99.90;;;-143.32;35.97;54671.03;4993913;28;20437;-87
2021/05/09 12:57:23;;;;;;;4.70;1.70;;;27.70;99.90;;;-143.32;35.60;54669.03;4993777;28;20497;-88
2021/05/09 12:59:53;;;;;;;3.43;1.90;;;27.70;99.90;;;-143.32;34.38;54697.31;4993946;28;20434;-88
2021/05/09 13:02:23;;;;;;;5.63;1.60;;;27.80;99.90;;;-143.32;34.20;54749.84;4993736;28;20500;-88
2021/05/09 13:04:55;;;;;;;4.93;2.10;;;27.60;99.90;;;-143.32;35.16;54737.72;4993703;28;20454;-88
2021/05/09 13:07:25;;;;;;;7.10;1.97;;;27.50;99.90;;;-143.32;35.17;54739.75;4993788;28;20461;-88
2021/05/09 13:09:53;;;;;;;3.97;2.10;;;27.40;99.90;;;-143.32;35.30;54759.94;4993240;28;20434;-88
2021/05/09 13:12:23;;;;;;;4.10;2.10;;;27.30;99.90;;;-143.32;35.94;54749.84;4993882;28;20446;-89
2021/05/09 13:14:53;;;;;;;4.57;1.70;;;27.20;99.90;;;-143.32;36.64;54733.69;4996565;28;20450;-89
2021/05/09 13:17:31;;;;;;;7.43;2.20;;;27.20;99.90;;;-143.32;35.90;54761.97;5004488;28;20474;-89
2021/05/09 13:20:10;;;;;;;6.23;1.60;;;27.30;99.90;;;-143.32;35.99;54776.09;5003885;28;20450;-88
2021/05/09 13:22:36;;;;;;;4.27;1.80;;;27.30;99.90;;;-143.32;36.31;54761.97;5001576;28;20838;-88
2021/05/09 13:25:07;;;;;;;1.93;1.50;;;27.40;99.90;;;-143.32;35.98;54770.03;5002483;28;20785;-88
2021/05/09 13:27:40;;;;;;;4.07;2.30;;;27.40;99.90;;;-143.32;35.58;54800.34;5003091;28;20458;-87
2021/05/09 13:30:16;;;;;;;5.30;2.23;;;27.30;99.90;;;-143.32;35.81;54798.34;5001499;28;20465;-87
2021/05/09 13:33:05;;;;;;;5.13;1.80;;;27.20;99.90;;;-143.32;35.27;54806.41;5001450;28;20449;-86
2021/05/09 13:35:34;;;;;;;3.80;1.77;;;27.40;99.90;;;-143.32;33.27;54871.06;4977023;28;20455;-88
2021/05/09 13:38:24;;;;;;;6.80;2.10;;;27.30;99.90;;;-143.32;33.13;54867.03;4981205;28;20510;-88
2021/05/09 13:40:58;;;;;;;8.40;2.47;;;27.40;99.90;;;-143.32;33.18;54949.88;4999932;28;20892;-88
2021/05/09 13:43:31;;;;;;;3.60;1.90;;;27.60;99.90;;;-143.32;32.88;55018.59;5000613;28;20538;-88
2021/05/09 13:46:02;;;;;;;4.30;1.50;;;27.60;99.90;;;-143.32;32.92;54994.34;5002494;28;20510;-87
2021/05/09 13:48:48;;;;;;;6.87;1.90;;;27.60;99.90;;;-143.32;32.97;54996.34;5001587;28;20427;-88
2021/05/09 13:51:19;;;;;;;3.07;2.70;;;27.50;99.90;;;-143.32;33.49;54986.25;5005534;28;20521;-90
2021/05/09 13:53:46;;;;;;;5.30;3.40;;;27.50;99.90;;;-143.32;33.52;54998.38;5002795;28;20415;-90
2021/05/09 14:00:17;;;;;;;;;;;;;;;;;;;;;
2021/05/09 14:02:49;;;;;;;5.37;4.10;;;27.70;99.90;;;-143.32;33.91;54984.22;5002383;28;20538;-89
2021/05/09 14:05:43;;;;;;;3.10;2.80;;;27.60;99.90;;;-143.32;33.78;55034.75;5003183;28;20445;-87
2021/05/09 14:08:23;;;;;;;4.37;2.50;;;27.50;99.90;;;-143.32;33.73;55032.72;5003463;28;20454;-87
2021/05/09 14:11:02;;;;;;;2.17;1.90;;;27.50;99.90;;;-143.32;34.11;55026.66;5004274;28;20407;-87
2021/05/09 14:13:31;;;;;;;3.50;2.10;;;27.50;99.90;;;-143.32;33.84;55002.41;5009096;28;20450;-92
2021/05/09 14:15:58;;;;;;;8.00;2.03;;;27.50;99.90;;;-143.32;34.21;55034.75;5002344;28;20463;-87
2021/05/09 14:18:30;;;;;;;2.80;1.73;;;27.40;99.90;;;-143.32;34.03;55026.66;5001261;28;20501;-92
2021/05/09 14:20:58;;;;;;;5.47;2.20;;;27.40;99.90;;;-143.32;33.97;55026.66;5004087;28;20450;-92
2021/05/09 14:23:28;;;;;;;2.40;1.93;;;27.50;99.90;;;-143.32;33.95;55044.84;5003702;28;20441;-90
2021/05/09 14:26:07;;;;;;;2.20;1.97;;;27.50;99.90;;;-143.32;33.25;55099.41;5004240;28;20481;-91
2021/05/09 14:37:13;;;;;;;4.67;1.80;;;27.60;99.90;;;-143.32;32.77;55111.53;4944500;29;20437;-91
2021/05/09 14:59:29;;;;;;;;;;;;;;;;;;;;;
2021/05/09 15:02:57;;;;;;;;;;;;;;;;;;;;;
2021/05/09 15:10:19;;;;;;;;;;;;;;;;;;;;;
2021/05/09 19:48:52;;;;;;;14.60;10.23;;;23.50;99.90;;;-143.32;40.30;55451.03;5353089;22;20496;-93
2021/05/09 19:51:36;;;;;;;2.37;1.93;;;23.40;99.90;;;-143.32;40.71;55410.63;5007074;28;20458;-93
2021/05/09 19:54:13;;;;;;;5.23;1.93;;;23.30;99.90;;;-143.32;40.35;55438.91;5005574;28;20427;-95
2021/05/09 20:01:16;;;;;;;3.40;2.23;;;23.20;99.90;;;-143.32;41.56;55449.00;4976666;28;20427;-95
2021/05/09 20:03:51;;;;;;;4.90;2.60;;;23.10;99.90;;;-143.32;42.12;55451.03;4971996;29;20464;-95
2021/05/09 20:12:33;;;;;;;4.70;2.23;;;22.80;99.90;;;-143.32;41.37;55479.34;5015129;28;20446;-95
2021/05/09 20:14:59;;;;;;;5.13;2.70;;;22.80;99.90;;;-143.32;41.46;55471.25;5001512;28;20430;-92
2021/05/09 20:21:33;;;;;;;6.60;1.97;;;22.80;99.90;;;-143.32;39.59;55499.53;4998814;28;20466;-92
2021/05/09 20:26:46;;;;;;;4.27;2.10;;;22.80;99.90;;;-143.32;38.71;55531.88;5001135;28;20450;-94
2021/05/09 20:32:54;;;;;;;10.93;2.27;;;22.80;99.90;;;-143.32;38.79;55501.56;4998639;28;20757;-89
2021/05/09 20:35:25;;;;;;;7.40;2.70;;;22.70;99.90;;;-143.32;39.21;55509.66;4998760;28;20431;-89
2021/05/09 20:38:01;;;;;;;8.80;1.70;;;22.70;99.90;;;-143.32;38.41;55533.91;4998067;28;20513;-89
2021/05/09 20:40:33;;;;;;;3.03;1.73;;;22.60;99.90;;;-143.32;38.49;55548.03;4997937;28;20426;-89
2021/05/09 20:43:07;;;;;;;4.00;1.73;;;22.60;99.90;;;-143.32;38.50;55535.91;4997935;28;20431;-90
2021/05/09 20:45:35;;;;;;;9.03;2.33;;;22.70;99.90;;;-143.32;38.58;55574.31;4998252;28;20466;-89
2021/05/09 20:55:46;;;;;;;2.70;2.17;;;22.50;99.90;;;-143.32;39.50;55523.78;4997813;28;20401;-89
2021/05/09 20:58:13;;;;;;;3.53;1.93;;;22.50;99.90;;;-143.32;39.88;55531.88;4998769;28;20502;-89
2021/05/09 21:00:43;;;;;;;5.37;2.50;;;22.40;99.90;;;-143.32;39.52;55574.31;4997898;28;20447;-91
2021/05/09 21:03:09;;;;;;;4.17;1.80;;;22.40;99.90;;;-143.32;39.54;55533.91;4997730;28;20442;-91
2021/05/09 21:05:38;;;;;;;3.97;2.00;;;22.40;99.90;;;-143.32;39.52;55570.28;4997795;28;20445;-89
2021/05/09 21:08:06;;;;;;;5.37;1.80;;;22.40;99.90;;;-143.32;40.50;55527.84;4999537;28;20481;-94
2021/05/09 21:10:34;;;;;;;2.90;2.20;;;22.30;99.90;;;-143.32;40.56;55574.31;5001485;28;20454;-94
2021/05/09 21:13:01;;;;;;;6.37;2.20;;;22.20;99.90;;;-143.32;41.18;55541.97;5003550;28;20441;-93
2021/05/09 21:15:32;;;;;;;12.07;3.63;;;22.10;99.90;;;-143.32;40.74;55548.03;5005312;28;20459;-93
2021/05/09 21:18:01;;;;;;;5.33;2.23;;;22.10;99.90;;;-143.32;41.15;55541.97;5002708;28;20470;-94
2021/05/09 21:20:33;;;;;;;8.13;2.93;;;22.00;99.90;;;-143.32;41.10;55546.03;5005183;28;20446;-93
2021/05/09 21:23:00;;;;;;;5.83;2.50;;;22.00;99.90;;;-143.32;41.13;55570.28;5002538;28;20534;-93
2021/05/09 21:25:30;;;;;;;7.07;3.27;;;21.90;99.90;;;-143.32;41.09;55570.28;5002100;28;20454;-94
2021/05/09 21:28:07;;;;;;;7.10;2.87;;;22.00;99.90;;;-143.32;41.54;55525.81;5003455;28;20494;-95
2021/05/09 21:30:40;;;;;;;6.00;2.60;;;22.00;99.90;;;-143.32;41.59;55566.22;5003231;28;20450;-95
2021/05/09 21:33:09;;;;;;;5.00;2.60;;;21.90;99.90;;;-143.32;42.15;55533.91;5001492;28;20443;-93
2021/05/09 21:35:48;;;;;;;5.43;2.83;;;21.90;99.90;;;-143.32;42.25;55519.75;5003733;28;20454;-93
2021/05/09 21:38:21;;;;;;;6.40;2.47;;;21.80;99.90;;;-143.32;42.38;55523.78;5004787;28;20546;-92
2021/05/09 21:40:48;;;;;;;5.17;2.60;;;21.80;99.90;;;-143.32;42.49;55507.63;5004780;28;20894;-92
2021/05/09 21:46:22;;;;;;;9.93;2.90;;;21.80;99.90;;;-143.32;43.59;55503.59;4996069;28;20530;-90
2021/05/09 21:52:33;;;;;;;5.90;2.40;;;21.60;99.90;;;-143.32;44.46;55537.94;5001967;28;20526;-90
2021/05/09 21:55:16;;;;;;;12.07;3.03;;;21.50;99.90;;;-143.32;44.25;55550.06;5001062;28;20517;-92
2021/05/09 21:57:43;;;;;;;9.80;2.03;;;21.40;99.90;;;-143.32;43.89;55574.31;5007260;28;20455;-94
2021/05/09 22:00:20;;;;;;;4.57;2.07;;;21.50;99.90;;;-143.32;43.79;55568.25;5005696;28;20810;-93
2021/05/09 22:02:50;;;;;;;1.83;1.67;;;21.50;99.90;;;-143.32;44.11;55529.84;5005852;28;20465;-93
2021/05/09 22:05:17;;;;;;;4.70;1.70;;;21.40;99.90;;;-143.32;44.40;55544.00;5004787;28;20483;-94
2021/05/09 22:07:44;;;;;;;4.53;2.07;;;21.40;99.90;;;-143.32;44.50;55558.16;5004862;28;20485;-93
2021/05/09 22:10:12;;;;;;;2.57;1.63;;;21.30;99.90;;;-143.32;44.34;55556.13;5001956;28;20968;-95
2021/05/09 22:15:23;;;;;;;4.17;1.60;;;21.40;99.90;;;-143.32;44.02;55529.84;5003109;28;20491;-93
2021/05/09 22:17:52;;;;;;;2.60;1.30;;;21.40;99.90;;;-143.32;44.46;55554.09;5002565;28;20912;-93
2021/05/09 22:20:19;;;;;;;8.13;1.80;;;21.40;99.90;;;-143.32;44.70;55554.09;4999541;28;20814;-94
2021/05/09 22:22:53;;;;;;;6.23;1.80;;;21.30;99.90;;;-143.32;45.13;55582.41;4998776;28;20447;-94
2021/05/09 22:25:23;;;;;;;4.10;1.93;;;21.30;99.90;;;-143.32;45.18;55566.22;4998737;28;20462;-95
2021/05/09 22:27:53;;;;;;;3.53;1.50;;;21.20;99.90;;;-143.32;45.71;55544.00;5001556;28;20447;-92
2021/05/09 22:30:23;;;;;;;4.13;2.03;;;21.10;99.90;;;-143.32;46.10;55568.25;5003278;28;20446;-95
2021/05/09 22:32:50;;;;;;;2.77;1.70;;;21.00;99.90;;;-143.32;46.34;55560.16;5009260;28;20467;-94
2021/05/09 22:35:23;;;;;;;7.73;1.80;;;21.00;99.90;;;-143.32;46.71;55544.00;5010491;28;20455;-93
2021/05/09 22:37:58;;;;;;;4.13;1.90;;;20.90;99.90;;;-143.32;46.96;55564.22;5003529;28;20530;-94
2021/05/09 22:40:24;;;;;;;4.53;2.20;;;20.90;99.90;;;-143.32;47.06;55531.88;5000385;28;20431;-93
2021/05/09 22:42:56;;;;;;;6.17;2.10;;;20.90;99.90;;;-143.32;47.23;55576.34;4999756;28;20447;-94
2021/05/09 22:45:24;;;;;;;4.90;2.00;;;20.90;99.90;;;-143.32;47.28;55548.03;4999355;28;20957;-94
2021/05/09 22:47:51;;;;;;;2.33;2.03;;;20.90;99.90;;;-143.32;48.04;55539.97;4999083;28;20439;-94
2021/05/09 22:50:21;;;;;;;4.67;2.33;;;20.90;99.90;;;-143.32;47.35;55513.69;4997967;28;20440;-92
2021/05/09 22:52:49;;;;;;;6.30;2.17;;;21.00;99.90;;;-143.32;47.39;55550.06;4998313;28;20443;-94
2021/05/09 22:55:18;;;;;;;2.37;1.60;;;21.00;99.90;;;-143.32;47.62;55550.06;4999648;28;20455;-93
2021/05/09 22:57:45;;;;;;;5.20;2.10;;;21.10;99.90;;;-143.32;47.55;55560.16;4998813;28;20512;-94
2021/05/09 23:00:17;;;;;;;5.93;2.57;;;21.10;99.90;;;-143.32;47.79;55552.09;4999857;28;20451;-92
2021/05/09 23:02:59;;;;;;;4.30;2.30;;;21.10;99.90;;;-143.32;47.92;55493.47;4999680;28;20420;-94
2021/05/09 23:05:26;;;;;;;9.20;2.37;;;21.10;99.90;;;-143.32;48.40;55558.16;5000184;28;20920;-92
2021/05/09 23:07:56;;;;;;;10.47;2.20;;;21.00;99.90;;;-143.32;48.23;55505.59;4998402;28;20446;-93
2021/05/09 23:10:29;;;;;;;5.87;2.27;;;21.10;99.90;;;-143.32;47.75;55513.69;4998814;28;20475;-93
2021/05/09 23:12:55;;;;;;;3.40;2.10;;;21.10;99.90;;;-143.32;47.47;55527.84;4998795;28;20438;-94
2021/05/09 23:15:22;;;;;;;8.03;2.50;;;21.20;99.90;;;-143.32;47.62;55539.97;4999093;28;20438;-94
2021/05/09 23:17:56;;;;;;;5.37;2.60;;;21.20;99.90;;;-143.32;47.77;55546.03;4998385;28;20459;-94
2021/05/09 23:20:26;;;;;;;3.17;1.77;;;21.20;99.90;;;-143.32;47.71;55519.75;5001695;28;20522;-95
2021/05/09 23:23:24;;;;;;;4.50;1.90;;;21.30;99.90;;;-143.32;47.28;55558.16;4999963;28;20451;-94
2021/05/09 23:25:51;;;;;;;4.57;2.80;;;21.30;99.90;;;-143.32;47.54;55546.03;4994346;28;20466;-94
2021/05/09 23:28:17;;;;;;;4.40;2.17;;;21.40;99.90;;;-143.32;47.82;55546.03;5001008;28;20442;-94
2021/05/09 23:30:44;;;;;;;5.97;1.90;;;21.40;99.90;;;-143.32;47.56;55525.81;5001251;28;20451;-95
2021/05/09 23:33:11;;;;;;;4.80;2.00;;;21.30;99.90;;;-143.32;47.54;55521.78;5002748;28;20473;-94
2021/05/09 23:35:39;;;;;;;4.20;2.00;;;21.40;99.90;;;-143.32;47.45;55503.59;5001720;28;20474;-94
2021/05/09 23:38:18;;;;;;;4.30;2.47;;;21.40;99.90;;;-143.32;47.49;55550.06;5001956;28;20451;-93
2021/05/09 23:40:44;;;;;;;7.27;2.03;;;21.50;99.90;;;-143.32;47.49;55564.22;5000764;28;20458;-94
2021/05/09 23:43:11;;;;;;;5.83;2.60;;;21.30;99.90;;;-143.32;47.03;55539.97;4998496;28;20436;-92
2021/05/09 23:45:38;;;;;;;3.23;2.10;;;21.40;99.90;;;-143.32;47.52;55544.00;5000509;28;20847;-92
2021/05/09 23:48:07;;;;;;;5.97;2.20;;;21.40;99.90;;;-143.32;47.55;55568.25;4998247;28;20826;-94
2021/05/09 23:50:34;;;;;;;7.10;2.53;;;21.40;99.90;;;-143.32;47.76;55525.81;5000367;28;20496;-93
2021/05/09 23:53:02;;;;;;;11.20;2.70;;;21.40;99.90;;;-143.32;47.75;55527.84;5002372;28;20447;-94
2021/05/09 23:55:29;;;;;;;3.90;2.00;;;21.40;99.90;;;-143.32;47.73;55566.22;5005894;28;20455;-94
2021/05/09 23:57:59;;;;;;;3.67;2.20;;;21.30;99.90;;;-143.32;47.38;55554.09;5003854;28;20459;-95
